Time;durP1;ratioP1;P1;durP2;ratioP2;P2;SDS_P1;SDS_P2;PMS_P1;PMS_P2;Temp;Humidity;BMP_temperature;BMP_pressure;BME280_temperature;BME280_humidity;BME280_pressure;Samples;Min_cycle;Max_cycle;Signal;HPM_P1;HPM_P2
2024/01/02 00:00:35;;;;;;;;;;;5.60;99.90;;;;;;5085664;28;20312;-67
2024/01/02 00:03:01;;;;;;;;;;;5.50;99.90;;;;;;5078220;28;19924;-67
2024/01/02 00:05:28;;;;;;;;;;;5.60;99.90;;;;;;5083144;28;20382;-67
2024/01/02 00:07:54;;;;;;;;;;;5.50;99.90;;;;;;5085553;28;19985;-68
2024/01/02 00:10:22;;;;;;;;;;;5.50;99.90;;;;;;5089715;28;19924;-68
2024/01/02 00:12:48;;;;;;;;;;;5.50;99.90;;;;;;5076162;28;19932;-68
2024/01/02 00:15:15;;;;;;;;;;;5.40;99.90;;;;;;5080994;28;19924;-67
2024/01/02 00:17:43;;;;;;;;;;;5.40;99.90;;;;;;5085429;28;19978;-68
2024/01/02 00:20:09;;;;;;;;;;;5.40;99.90;;;;;;5082933;28;20397;-68
2024/01/02 00:22:36;;;;;;;;;;;5.40;99.90;;;;;;5082523;28;19986;-68
2024/01/02 00:25:05;;;;;;;;;;;5.40;99.90;;;;;;5078708;28;19964;-68
2024/01/02 00:27:32;;;;;;;;;;;5.40;99.90;;;;;;5085984;28;19932;-67
2024/01/02 00:29:58;;;;;;;;;;;5.40;99.90;;;;;;5090973;28;19924;-67
2024/01/02 00:32:25;;;;;;;;;;;5.30;99.90;;;;;;5090950;28;19924;-67
2024/01/02 00:34:52;;;;;;;;;;;5.30;99.90;;;;;;5085959;28;19929;-67
2024/01/02 00:37:19;;;;;;;;;;;5.30;99.90;;;;;;5081734;28;19928;-67
2024/01/02 00:39:45;;;;;;;;;;;5.30;99.90;;;;;;5086388;28;20422;-67
2024/01/02 00:42:12;;;;;;;;;;;5.30;99.90;;;;;;5089635;28;19928;-67
2024/01/02 00:44:38;;;;;;;;;;;5.30;99.90;;;;;;5092081;28;19924;-67
2024/01/02 00:47:07;;;;;;;;;;;5.30;99.90;;;;;;5082624;28;19924;-67
2024/01/02 00:49:34;;;;;;;;;;;5.30;99.90;;;;;;5083741;28;19951;-67
2024/01/02 00:52:01;;;;;;;;;;;5.30;99.90;;;;;;5087219;28;19924;-67
2024/01/02 00:54:28;;;;;;;;;;;5.30;99.90;;;;;;5091226;28;19928;-67
2024/01/02 00:56:54;;;;;;;;;;;5.30;99.90;;;;;;5091805;28;19931;-67
2024/01/02 00:59:21;;;;;;;;;;;5.30;99.90;;;;;;5079368;28;19977;-67
2024/01/02 01:01:47;;;;;;;;;;;5.30;99.90;;;;;;5087628;28;20370;-67
2024/01/02 01:04:14;;;;;;;;;;;5.20;99.90;;;;;;5088671;28;19981;-67
2024/01/02 01:06:40;;;;;;;;;;;5.20;99.90;;;;;;5091634;28;20389;-67
2024/01/02 01:09:08;;;;;;;;;;;5.20;99.90;;;;;;5084330;28;19936;-67
2024/01/02 01:11:35;;;;;;;;;;;5.30;99.90;;;;;;5080172;28;19952;-67
2024/01/02 01:14:01;;;;;;;;;;;5.20;99.90;;;;;;5087100;28;19928;-67
2024/01/02 01:16:28;;;;;;;;;;;5.30;99.90;;;;;;5088332;28;19924;-66
2024/01/02 01:18:54;;;;;;;;;;;5.20;99.90;;;;;;5093043;28;19928;-66
2024/01/02 01:21:21;;;;;;;;;;;5.20;99.90;;;;;;5082950;28;19970;-66
2024/01/02 01:23:48;;;;;;;;;;;5.20;99.90;;;;;;5082660;28;19931;-66
2024/01/02 01:26:16;;;;;;;;;;;5.10;99.90;;;;;;5087693;28;20590;-66
2024/01/02 01:28:42;;;;;;;;;;;5.20;99.90;;;;;;5088949;28;20375;-66
2024/01/02 01:31:09;;;;;;;;;;;5.20;99.90;;;;;;5089385;28;19970;-66
2024/01/02 01:33:35;;;;;;;;;;;5.20;99.90;;;;;;5083818;28;19999;-66
2024/01/02 01:36:02;;;;;;;;;;;5.10;99.90;;;;;;5087823;28;19968;-67
2024/01/02 01:38:28;;;;;;;;;;;5.10;99.90;;;;;;5088741;28;19930;-67
2024/01/02 01:40:55;;;;;;;;;;;5.20;99.90;;;;;;5087404;28;19924;-66
2024/01/02 01:43:23;;;;;;;;;;;5.20;99.90;;;;;;5085403;28;19971;-67
2024/01/02 01:45:49;;;;;;;;;;;5.20;99.90;;;;;;5086262;28;20300;-67
2024/01/02 01:48:16;;;;;;;;;;;5.10;99.90;;;;;;5085316;28;19924;-67
2024/01/02 01:50:42;;;;;;;;;;;5.10;99.90;;;;;;5088498;28;19925;-67
2024/01/02 01:53:10;;;;;;;;;;;5.20;99.90;;;;;;5089820;28;19924;-66
2024/01/02 01:55:36;;;;;;;;;;;5.10;99.90;;;;;;5078742;28;19982;-66
2024/01/02 01:58:03;;;;;;;;;;;5.20;99.90;;;;;;5083629;28;20359;-66
2024/01/02 02:00:31;;;;;;;;;;;5.10;99.90;;;;;;5087229;28;19924;-66
2024/01/02 02:02:58;;;;;;;;;;;5.10;99.90;;;;;;5090747;28;20390;-66
2024/01/02 02:05:26;;;;;;;;;;;5.10;99.90;;;;;;5080671;28;19932;-67
2024/01/02 02:07:54;;;;;;;;;;;5.10;99.90;;;;;;5080973;28;20010;-66
2024/01/02 02:10:20;;;;;;;;;;;5.10;99.90;;;;;;5085432;28;19977;-66
2024/01/02 02:12:47;;;;;;;;;;;5.10;99.90;;;;;;5083920;28;19946;-66
2024/01/02 02:15:13;;;;;;;;;;;5.10;99.90;;;;;;5093098;28;20336;-67
2024/01/02 02:17:41;;;;;;;;;;;5.10;99.90;;;;;;5080743;28;20446;-67
2024/01/02 02:20:08;;;;;;;;;;;5.10;99.90;;;;;;5088025;28;19928;-67
2024/01/02 02:22:35;;;;;;;;;;;5.10;99.90;;;;;;5085877;28;19970;-67
2024/01/02 02:25:03;;;;;;;;;;;5.20;99.90;;;;;;5088873;28;19924;-67
2024/01/02 02:27:30;;;;;;;;;;;5.20;99.90;;;;;;5084636;28;20060;-67
2024/01/02 02:29:57;;;;;;;;;;;5.10;99.90;;;;;;5082734;28;19977;-67
2024/01/02 02:32:23;;;;;;;;;;;5.20;99.90;;;;;;5084679;28;19928;-67
2024/01/02 02:34:50;;;;;;;;;;;5.20;99.90;;;;;;5089164;28;20459;-67
2024/01/02 02:37:16;;;;;;;;;;;5.20;99.90;;;;;;5090166;28;19930;-67
2024/01/02 02:39:43;;;;;;;;;;;5.20;99.90;;;;;;5087314;28;20358;-67
2024/01/02 02:42:11;;;;;;;;;;;5.20;99.90;;;;;;5082090;28;20052;-67
2024/01/02 02:44:37;;;;;;;;;;;5.20;99.90;;;;;;5080742;28;20402;-67
2024/01/02 02:47:04;;;;;;;;;;;5.20;99.90;;;;;;5086846;28;19928;-67
2024/01/02 02:49:31;;;;;;;;;;;5.20;99.90;;;;;;5091884;28;19924;-67
2024/01/02 02:51:57;;;;;;;;;;;5.20;99.90;;;;;;5080349;28;19977;-67
2024/01/02 02:54:24;;;;;;;;;;;5.30;99.90;;;;;;5080813;28;19931;-67
2024/01/02 02:56:50;;;;;;;;;;;5.20;99.90;;;;;;5085824;28;19924;-67
2024/01/02 02:59:18;;;;;;;;;;;5.30;99.90;;;;;;5086215;28;19986;-67
2024/01/02 03:01:45;;;;;;;;;;;5.30;99.90;;;;;;5082793;28;19928;-67
2024/01/02 03:04:11;;;;;;;;;;;5.30;99.90;;;;;;5080947;28;20336;-67
2024/01/02 03:06:38;;;;;;;;;;;5.30;99.90;;;;;;5084253;28;20129;-67
2024/01/02 03:09:04;;;;;;;;;;;5.30;99.90;;;;;;5089237;28;20302;-67
2024/01/02 03:11:30;;;;;;;;;;;5.30;99.90;;;;;;5090886;28;20018;-67
2024/01/02 03:13:57;;;;;;;;;;;5.30;99.90;;;;;;5081427;28;19969;-67
2024/01/02 03:16:25;;;;;;;;;;;5.30;99.90;;;;;;5089026;28;19931;-68
2024/01/02 03:18:52;;;;;;;;;;;5.40;99.90;;;;;;5085979;28;19924;-68
2024/01/02 03:21:20;;;;;;;;;;;5.30;99.90;;;;;;5091095;28;20344;-67
2024/01/02 03:23:47;;;;;;;;;;;5.40;99.90;;;;;;5084653;28;19946;-67
2024/01/02 03:26:13;;;;;;;;;;;5.40;99.90;;;;;;5079983;28;19927;-67
2024/01/02 03:28:40;;;;;;;;;;;5.40;99.90;;;;;;5087140;28;19932;-67
2024/01/02 03:31:06;;;;;;;;;;;5.40;99.90;;;;;;5086404;28;20344;-67
2024/01/02 03:33:34;;;;;;;;;;;5.40;99.90;;;;;;5088910;28;19950;-67
2024/01/02 03:36:00;;;;;;;;;;;5.40;99.90;;;;;;5088216;28;19932;-67
2024/01/02 03:38:27;;;;;;;;;;;5.40;99.90;;;;;;5080414;28;19933;-68
2024/01/02 03:40:53;;;;;;;;;;;5.40;99.90;;;;;;5088802;28;19932;-67
2024/01/02 03:43:20;;;;;;;;;;;5.50;99.90;;;;;;5084045;28;20386;-68
2024/01/02 03:45:46;;;;;;;;;;;5.50;99.90;;;;;;5088287;28;19985;-67
2024/01/02 03:48:13;;;;;;;;;;;5.50;99.90;;;;;;5084175;28;19925;-68
2024/01/02 03:50:41;;;;;;;;;;;5.50;99.90;;;;;;5083154;28;19924;-68
2024/01/02 03:53:08;;;;;;;;;;;5.50;99.90;;;;;;5086560;28;19924;-67
2024/01/02 03:55:34;;;;;;;;;;;5.60;99.90;;;;;;5088434;28;19924;-68
2024/01/02 03:58:01;;;;;;;;;;;5.60;99.90;;;;;;5088362;28;19928;-67
2024/01/02 04:00:27;;;;;;;;;;;5.60;99.90;;;;;;5088158;28;19970;-67
2024/01/02 04:02:54;;;;;;;;;;;5.60;99.90;;;;;;5089615;28;20374;-68
2024/01/02 04:05:21;;;;;;;;;;;5.60;99.90;;;;;;5090497;28;19931;-67
2024/01/02 04:07:49;;;;;;;;;;;5.60;99.90;;;;;;5093467;28;20466;-67
2024/01/02 04:10:16;;;;;;;;;;;5.60;99.90;;;;;;5086851;28;19932;-67
2024/01/02 04:12:42;;;;;;;;;;;5.60;99.90;;;;;;5085720;28;19935;-67
2024/01/02 04:15:09;;;;;;;;;;;5.70;99.90;;;;;;5090505;28;19924;-67
2024/01/02 04:17:35;;;;;;;;;;;5.70;99.90;;;;;;5090895;28;19970;-67
2024/01/02 04:20:02;;;;;;;;;;;5.70;99.90;;;;;;5087838;28;19924;-68
2024/01/02 04:22:28;;;;;;;;;;;5.60;99.90;;;;;;5086307;28;20360;-67
2024/01/02 04:24:56;;;;;;;;;;;5.60;99.90;;;;;;5088807;28;19924;-67
2024/01/02 04:27:23;;;;;;;;;;;5.60;99.90;;;;;;5087386;28;20382;-68
2024/01/02 04:29:49;;;;;;;;;;;5.60;99.90;;;;;;5092355;28;19977;-68
2024/01/02 04:32:16;;;;;;;;;;;5.60;99.90;;;;;;5090766;28;20365;-68
2024/01/02 04:34:42;;;;;;;;;;;5.60;99.90;;;;;;5082166;28;19978;-67
2024/01/02 04:37:09;;;;;;;;;;;5.60;99.90;;;;;;5091965;28;19925;-68
2024/01/02 04:39:35;;;;;;;;;;;5.60;99.90;;;;;;5091393;28;19924;-68
2024/01/02 04:42:03;;;;;;;;;;;5.60;99.90;;;;;;5091700;28;20004;-68
2024/01/02 04:44:30;;;;;;;;;;;5.60;99.90;;;;;;5090543;28;19924;-68
2024/01/02 04:46:57;;;;;;;;;;;5.60;99.90;;;;;;5090527;28;19989;-68
2024/01/02 04:49:23;;;;;;;;;;;5.60;99.90;;;;;;5088044;28;19924;-67
2024/01/02 04:51:49;;;;;;;;;;;5.70;99.90;;;;;;5087945;28;19924;-67
2024/01/02 04:54:17;;;;;;;;;;;5.70;99.90;;;;;;5093700;28;19985;-67
2024/01/02 04:56:44;;;;;;;;;;;5.70;99.90;;;;;;5084187;28;19961;-68
2024/01/02 04:59:11;;;;;;;;;;;5.70;99.90;;;;;;5089993;28;19928;-68
2024/01/02 05:01:38;;;;;;;;;;;5.70;99.90;;;;;;5086411;28;19928;-68
2024/01/02 05:04:05;;;;;;;;;;;5.70;99.90;;;;;;5091837;28;20445;-68
2024/01/02 05:06:31;;;;;;;;;;;5.70;99.90;;;;;;5092561;28;20283;-68
2024/01/02 05:08:58;;;;;;;;;;;5.70;99.90;;;;;;5085748;28;19977;-68
2024/01/02 05:11:24;;;;;;;;;;;5.70;99.90;;;;;;5089049;28;19925;-68
2024/01/02 05:13:51;;;;;;;;;;;5.70;99.90;;;;;;5090422;28;19931;-68
2024/01/02 05:16:18;;;;;;;;;;;5.70;99.90;;;;;;5086502;28;19924;-67
2024/01/02 05:18:45;;;;;;;;;;;5.70;99.90;;;;;;5089032;28;20345;-68
2024/01/02 05:21:11;;;;;;;;;;;5.70;99.90;;;;;;5085882;28;19924;-68
2024/01/02 05:23:38;;;;;;;;;;;5.70;99.90;;;;;;5089172;28;20344;-67
2024/01/02 05:26:05;;;;;;;;;;;5.70;99.90;;;;;;5086251;28;19931;-68
2024/01/02 05:28:31;;;;;;;;;;;5.70;99.90;;;;;;5091836;28;19950;-68
2024/01/02 05:30:58;;;;;;;;;;;5.70;99.90;;;;;;5088257;28;19928;-68
2024/01/02 05:33:25;;;;;;;;;;;5.70;99.90;;;;;;5092119;28;19927;-69
2024/01/02 05:35:52;;;;;;;;;;;5.70;99.90;;;;;;5088954;28;20455;-68
2024/01/02 05:38:18;;;;;;;;;;;5.70;99.90;;;;;;5089308;28;19970;-68
2024/01/02 05:40:45;;;;;;;;;;;5.80;99.90;;;;;;5093500;28;19931;-69
2024/01/02 05:43:11;;;;;;;;;;;5.80;99.90;;;;;;5089472;28;20049;-68
2024/01/02 05:45:38;;;;;;;;;;;5.80;99.90;;;;;;5087059;28;19970;-68
2024/01/02 05:48:05;;;;;;;;;;;5.80;99.90;;;;;;5089058;28;19924;-68
2024/01/02 05:50:33;;;;;;;;;;;5.80;99.90;;;;;;5088782;28;19928;-68
2024/01/02 05:52:59;;;;;;;;;;;5.90;99.90;;;;;;5085372;28;19981;-68
2024/01/02 05:55:25;;;;;;;;;;;5.80;99.90;;;;;;5085964;28;19931;-68
2024/01/02 05:57:52;;;;;;;;;;;5.90;99.90;;;;;;5090817;28;20344;-68
2024/01/02 06:00:19;;;;;;;;;;;5.90;99.90;;;;;;5089120;28;19924;-68
2024/01/02 06:02:45;;;;;;;;;;;5.90;99.90;;;;;;5090750;28;20003;-68
2024/01/02 06:05:12;;;;;;;;;;;5.90;99.90;;;;;;5087013;28;19924;-68
2024/01/02 06:07:40;;;;;;;;;;;5.90;99.90;;;;;;5089656;28;19924;-68
2024/01/02 06:10:07;;;;;;;;;;;5.90;99.90;;;;;;5091173;28;19978;-68
2024/01/02 06:12:33;;;;;;;;;;;6.00;99.90;;;;;;5092755;28;20388;-68
2024/01/02 06:15:00;;;;;;;;;;;6.00;99.90;;;;;;5095574;28;19924;-68
2024/01/02 06:17:26;;;;;;;;;;;6.00;99.90;;;;;;5083473;28;20303;-68
2024/01/02 06:19:53;;;;;;;;;;;6.00;99.90;;;;;;5085476;28;19978;-68
2024/01/02 06:22:19;;;;;;;;;;;6.10;99.90;;;;;;5087436;28;19928;-68
2024/01/02 06:24:47;;;;;;;;;;;6.10;99.90;;;;;;5091409;28;19928;-68
2024/01/02 06:27:13;;;;;;;;;;;6.10;99.90;;;;;;5083924;28;19924;-68
2024/01/02 06:29:40;;;;;;;;;;;6.10;99.90;;;;;;5089670;28;19924;-68
2024/01/02 06:32:07;;;;;;;;;;;6.10;99.90;;;;;;5088390;28;19924;-68
2024/01/02 06:34:33;;;;;;;;;;;6.20;99.90;;;;;;5087216;28;19981;-69
2024/01/02 06:37:00;;;;;;;;;;;6.20;99.90;;;;;;5092195;28;19924;-69
2024/01/02 06:39:26;;;;;;;;;;;6.20;99.90;;;;;;5084590;28;19924;-69
2024/01/02 06:41:54;;;;;;;;;;;6.20;99.90;;;;;;5086199;28;19978;-68
2024/01/02 06:44:21;;;;;;;;;;;6.20;99.90;;;;;;5086909;28;19929;-68
2024/01/02 06:46:47;;;;;;;;;;;6.20;99.90;;;;;;5087606;28;19970;-69
2024/01/02 06:49:13;;;;;;;;;;;6.30;99.90;;;;;;5090301;28;19969;-68
2024/01/02 06:51:40;;;;;;;;;;;6.30;99.90;;;;;;5082621;28;20386;-69
2024/01/02 06:54:06;;;;;;;;;;;6.30;99.90;;;;;;5089757;28;19924;-68
2024/01/02 06:56:33;;;;;;;;;;;6.30;99.90;;;;;;5082895;28;19928;-68
2024/01/02 06:59:01;;;;;;;;;;;6.30;99.90;;;;;;5079761;28;19924;-68
2024/01/02 07:01:27;;;;;;;;;;;6.30;99.90;;;;;;5091210;28;19924;-67
2024/01/02 07:03:54;;;;;;;;;;;6.30;99.90;;;;;;5084399;28;19932;-66
2024/01/02 07:06:20;;;;;;;;;;;6.30;99.90;;;;;;5087993;28;19924;-73
2024/01/02 07:08:47;;;;;;;;;;;6.40;99.90;;;;;;5086898;28;19948;-69
2024/01/02 07:11:15;;;;;;;;;;;6.50;99.90;;;;;;5087281;28;20015;-69
2024/01/02 07:13:42;;;;;;;;;;;6.60;99.90;;;;;;5085804;28;19924;-68
2024/01/02 07:16:10;;;;;;;;;;;6.60;99.90;;;;;;5087328;28;20382;-69
2024/01/02 07:18:37;;;;;;;;;;;6.60;99.90;;;;;;5086654;28;19928;-68
2024/01/02 07:21:04;;;;;;;;;;;6.50;99.90;;;;;;5089617;28;19925;-68
2024/01/02 07:23:30;;;;;;;;;;;6.50;99.90;;;;;;5090324;28;20365;-68
2024/01/02 07:25:57;;;;;;;;;;;6.50;99.90;;;;;;5092078;28;19924;-68
2024/01/02 07:28:23;;;;;;;;;;;6.50;99.90;;;;;;5091075;28;19981;-68
2024/01/02 07:30:50;;;;;;;;;;;6.50;99.90;;;;;;5090795;28;19970;-68
2024/01/02 07:33:19;;;;;;;;;;;6.50;99.90;;;;;;5090886;28;20302;-68
2024/01/02 07:35:46;;;;;;;;;;;6.60;99.90;;;;;;5091958;28;19953;-68
2024/01/02 07:38:13;;;;;;;;;;;6.60;99.90;;;;;;5091770;28;19950;-68
2024/01/02 07:40:40;;;;;;;;;;;6.60;99.90;;;;;;5090857;28;20003;-68
2024/01/02 07:43:07;;;;;;;;;;;6.80;99.90;;;;;;5091391;28;19934;-68
2024/01/02 07:45:33;;;;;;;;;;;6.90;99.90;;;;;;5091830;28;19974;-68
2024/01/02 07:48:00;;;;;;;;;;;7.00;99.90;;;;;;5087144;28;19977;-68
2024/01/02 07:50:27;;;;;;;;;;;7.20;99.90;;;;;;5091552;28;19931;-68
2024/01/02 07:52:54;;;;;;;;;;;7.20;99.90;;;;;;5092201;28;19985;-68
2024/01/02 07:55:20;;;;;;;;;;;7.30;99.90;;;;;;5091428;28;19924;-68
2024/01/02 07:57:47;;;;;;;;;;;7.30;99.90;;;;;;5091564;28;20443;-68
2024/01/02 08:00:14;;;;;;;;;;;7.40;99.90;;;;;;5091382;28;19978;-68
2024/01/02 08:02:40;;;;;;;;;;;7.40;99.90;;;;;;5091525;28;20374;-68
2024/01/02 08:05:07;;;;;;;;;;;7.50;99.90;;;;;;5091625;28;19924;-67
2024/01/02 08:07:35;;;;;;;;;;;7.50;99.90;;;;;;5091442;28;19970;-67
2024/01/02 08:10:03;;;;;;;;;;;7.60;99.90;;;;;;5091270;28;20301;-67
2024/01/02 08:12:29;;;;;;;;;;;7.60;99.90;;;;;;5091688;28;19974;-67
2024/01/02 08:14:56;;;;;;;;;;;7.70;99.90;;;;;;5093296;28;19950;-67
2024/01/02 08:17:23;;;;;;;;;;;7.80;99.90;;;;;;5091424;28;20352;-66
2024/01/02 08:19:50;;;;;;;;;;;7.80;99.90;;;;;;5091289;28;19959;-67
2024/01/02 08:22:17;;;;;;;;;;;7.90;99.90;;;;;;5091250;28;19924;-67
2024/01/02 08:24:45;;;;;;;;;;;7.90;99.90;;;;;;5091459;28;20357;-67
2024/01/02 08:27:11;;;;;;;;;;;8.10;99.90;;;;;;5091552;28;20447;-67
2024/01/02 08:29:38;;;;;;;;;;;8.10;99.90;;;;;;5089348;28;19928;-67
2024/01/02 08:32:05;;;;;;;;;;;8.20;99.90;;;;;;5091553;28;19977;-67
2024/01/02 08:34:31;;;;;;;;;;;8.20;99.90;;;;;;5091185;28;19977;-67
2024/01/02 08:36:58;;;;;;;;;;;8.30;99.90;;;;;;5091249;28;19924;-67
2024/01/02 08:39:24;;;;;;;;;;;8.30;99.90;;;;;;5091252;28;19928;-67
2024/01/02 08:41:52;;;;;;;;;;;8.40;99.90;;;;;;5091535;28;20355;-66
2024/01/02 08:44:19;;;;;;;;;;;8.50;99.90;;;;;;5091385;28;19928;-67
2024/01/02 08:46:45;;;;;;;;;;;8.60;99.90;;;;;;5094789;28;19924;-66
2024/01/02 08:49:13;;;;;;;;;;;8.60;99.90;;;;;;5095209;28;19924;-67
2024/01/02 08:51:40;;;;;;;;;;;8.70;99.90;;;;;;5094654;28;19928;-67
2024/01/02 08:54:06;;;;;;;;;;;8.80;99.90;;;;;;5094931;28;19977;-68
2024/01/02 08:56:33;;;;;;;;;;;8.80;99.90;;;;;;5095036;28;19931;-68
2024/01/02 08:59:02;;;;;;;;;;;8.80;99.90;;;;;;5089161;28;19928;-68
2024/01/02 09:01:28;;;;;;;;;;;8.80;99.90;;;;;;5094670;28;20010;-68
2024/01/02 09:03:55;;;;;;;;;;;8.90;99.90;;;;;;5094431;28;19924;-68
2024/01/02 09:06:22;;;;;;;;;;;8.90;99.90;;;;;;5094326;28;19928;-68
2024/01/02 09:08:49;;;;;;;;;;;8.90;99.90;;;;;;5094644;28;19931;-68
2024/01/02 09:11:16;;;;;;;;;;;9.00;99.90;;;;;;5094964;28;19924;-67
2024/01/02 09:13:43;;;;;;;;;;;8.90;99.90;;;;;;5095403;28;20003;-68
2024/01/02 09:16:10;;;;;;;;;;;8.90;99.90;;;;;;5096231;28;19947;-67
2024/01/02 09:18:37;;;;;;;;;;;9.00;99.90;;;;;;5094173;28;19928;-68
2024/01/02 09:21:04;;;;;;;;;;;8.90;99.90;;;;;;5094255;28;19932;-68
2024/01/02 09:23:30;;;;;;;;;;;8.90;99.90;;;;;;5094209;28;19974;-68
2024/01/02 09:25:58;;;;;;;;;;;8.90;99.90;;;;;;5094008;28;20447;-67
2024/01/02 09:28:25;;;;;;;;;;;8.80;99.90;;;;;;5093419;28;19924;-67
2024/01/02 09:30:51;;;;;;;;;;;8.80;99.90;;;;;;5092751;28;20347;-67
2024/01/02 09:33:20;;;;;;;;;;;8.90;99.90;;;;;;5093756;28;20014;-68
2024/01/02 09:35:47;;;;;;;;;;;8.90;99.90;;;;;;5094115;28;19924;-68
2024/01/02 09:38:15;;;;;;;;;;;8.90;99.90;;;;;;5094218;28;19931;-67
2024/01/02 09:40:49;;;;;;;;;;;8.90;99.90;;;;;;5093573;28;19924;-67
2024/01/02 09:43:19;;;;;;;;;;;8.90;99.90;;;;;;5093984;28;19928;-68
2024/01/02 09:45:50;;;;;;;;;;;8.90;99.90;;;;;;5093548;28;19986;-68
2024/01/02 09:48:24;;;;;;;;;;;8.90;99.90;;;;;;5094122;28;19924;-68
2024/01/02 09:51:05;;;;;;;;;;;8.90;99.90;;;;;;5093674;28;19978;-68
2024/01/02 09:53:43;;;;;;;;;;;8.90;99.90;;;;;;5093797;28;19924;-68
2024/01/02 09:56:11;;;;;;;;;;;8.90;99.90;;;;;;5087879;28;19924;-67
2024/01/02 09:58:41;;;;;;;;;;;8.90;99.90;;;;;;5093469;28;19931;-67
2024/01/02 10:01:12;;;;;;;;;;;8.90;99.90;;;;;;5093616;28;19969;-67
2024/01/02 10:03:53;;;;;;;;;;;9.00;99.90;;;;;;5093476;28;19977;-68
2024/01/02 10:06:28;;;;;;;;;;;9.00;99.90;;;;;;5093456;28;19924;-67
2024/01/02 10:09:02;;;;;;;;;;;9.00;99.90;;;;;;5093468;28;19932;-67
2024/01/02 10:11:32;;;;;;;;;;;9.00;99.90;;;;;;5093499;28;19928;-67
2024/01/02 10:14:00;;;;;;;;;;;9.00;99.90;;;;;;5090313;28;19984;-68
2024/01/02 10:16:29;;;;;;;;;;;9.00;99.90;;;;;;5094181;28;19925;-67
2024/01/02 10:19:02;;;;;;;;;;;9.00;99.90;;;;;;5093017;28;19924;-68
2024/01/02 10:21:29;;;;;;;;;;;9.00;99.90;;;;;;5093631;28;19924;-68
2024/01/02 10:24:01;;;;;;;;;;;9.00;99.90;;;;;;5092940;28;20340;-68
2024/01/02 10:26:29;;;;;;;;;;;9.10;99.90;;;;;;5093114;28;19969;-67
2024/01/02 10:29:00;;;;;;;;;;;9.10;99.90;;;;;;5092409;28;20049;-67
2024/01/02 10:31:31;;;;;;;;;;;9.20;99.90;;;;;;5092909;28;20032;-68
2024/01/02 10:34:04;;;;;;;;;;;9.20;99.90;;;;;;5092832;28;19928;-67
2024/01/02 10:36:33;;;;;;;;;;;9.20;99.90;;;;;;5093135;28;19928;-67
2024/01/02 10:39:05;;;;;;;;;;;9.30;99.90;;;;;;5086256;28;19985;-67
2024/01/02 10:41:42;;;;;;;;;;;9.30;99.90;;;;;;5092786;28;19931;-68
2024/01/02 10:44:11;;;;;;;;;;;9.30;99.90;;;;;;5087126;28;19924;-67
2024/01/02 10:46:43;;;;;;;;;;;9.30;99.90;;;;;;5092704;28;19931;-67
2024/01/02 10:49:17;;;;;;;;;;;9.40;99.90;;;;;;5092507;28;20328;-67
2024/01/02 10:51:48;;;;;;;;;;;9.40;99.90;;;;;;5092863;28;19924;-67
2024/01/02 10:54:20;;;;;;;;;;;9.40;99.90;;;;;;5092505;28;20436;-67
2024/01/02 10:56:51;;;;;;;;;;;9.50;99.90;;;;;;5092242;28;19981;-67
2024/01/02 10:59:25;;;;;;;;;;;9.50;99.90;;;;;;5092347;28;19924;-67
2024/01/02 11:01:56;;;;;;;;;;;9.60;99.90;;;;;;5092460;28;19998;-67
2024/01/02 11:04:32;;;;;;;;;;;9.60;99.90;;;;;;5092507;28;19928;-67
2024/01/02 11:07:01;;;;;;;;;;;9.60;99.90;;;;;;5092074;28;19930;-67
2024/01/02 11:09:31;;;;;;;;;;;9.60;99.90;;;;;;5092088;28;19924;-67
2024/01/02 11:11:58;;;;;;;;;;;9.60;99.90;;;;;;5092286;28;20324;-67
2024/01/02 11:14:25;;;;;;;;;;;9.60;99.90;;;;;;5098863;28;19924;-67
2024/01/02 11:16:53;;;;;;;;;;;9.60;99.90;;;;;;5091210;28;19978;-67
2024/01/02 11:19:22;;;;;;;;;;;9.60;99.90;;;;;;5092074;28;19970;-67
2024/01/02 11:21:52;;;;;;;;;;;9.60;99.90;;;;;;5092292;28;20364;-68
2024/01/02 11:24:22;;;;;;;;;;;9.60;99.90;;;;;;5092456;28;19924;-68
2024/01/02 11:26:50;;;;;;;;;;;9.60;99.90;;;;;;5092040;28;19924;-69
2024/01/02 11:29:17;;;;;;;;;;;9.50;99.90;;;;;;5091033;28;19928;-68
2024/01/02 11:31:45;;;;;;;;;;;9.50;99.90;;;;;;5092807;28;20018;-68
2024/01/02 11:34:18;;;;;;;;;;;9.50;99.90;;;;;;5091751;28;20348;-68
2024/01/02 11:36:50;;;;;;;;;;;9.50;99.90;;;;;;5091872;28;19924;-66
2024/01/02 11:39:24;;;;;;;;;;;9.50;99.90;;;;;;5091880;28;19977;-68
2024/01/02 11:41:56;;;;;;;;;;;9.50;99.90;;;;;;5091753;28;20279;-66
2024/01/02 11:44:28;;;;;;;;;;;9.40;99.90;;;;;;5091648;28;19934;-67
2024/01/02 11:46:58;;;;;;;;;;;9.40;99.90;;;;;;5091985;28;19977;-66
2024/01/02 11:49:28;;;;;;;;;;;9.40;99.90;;;;;;5091835;28;19924;-67
2024/01/02 11:51:56;;;;;;;;;;;9.40;99.90;;;;;;5083408;28;19924;-67
2024/01/02 11:54:29;;;;;;;;;;;9.30;99.90;;;;;;5091742;28;20184;-67
2024/01/02 11:56:56;;;;;;;;;;;9.30;99.90;;;;;;5091350;28;19977;-67
2024/01/02 11:59:26;;;;;;;;;;;9.20;99.90;;;;;;5091583;28;19928;-67
2024/01/02 12:01:59;;;;;;;;;;;9.30;99.90;;;;;;5090897;28;19928;-67
2024/01/02 12:04:34;;;;;;;;;;;9.30;99.90;;;;;;5091544;28;20307;-67
2024/01/02 12:07:08;;;;;;;;;;;9.30;99.90;;;;;;5091735;28;19924;-67
2024/01/02 12:09:36;;;;;;;;;;;9.20;99.90;;;;;;5091263;28;19931;-67
2024/01/02 12:12:08;;;;;;;;;;;9.30;99.90;;;;;;5091868;28;20223;-67
2024/01/02 12:14:41;;;;;;;;;;;9.20;99.90;;;;;;5098472;28;19923;-66
2024/01/02 12:17:08;;;;;;;;;;;9.20;99.90;;;;;;5091566;28;19978;-67
2024/01/02 12:19:37;;;;;;;;;;;9.20;99.90;;;;;;5091866;28;19928;-67
2024/01/02 12:22:05;;;;;;;;;;;9.10;99.90;;;;;;5095233;28;19924;-66
2024/01/02 12:24:31;;;;;;;;;;;9.10;99.90;;;;;;5095295;28;20390;-67
2024/01/02 12:26:59;;;;;;;;;;;9.10;99.90;;;;;;5095336;28;19924;-66
2024/01/02 12:29:32;;;;;;;;;;;9.00;99.90;;;;;;5093778;28;19928;-66
2024/01/02 12:32:01;;;;;;;;;;;9.00;99.90;;;;;;5095273;28;19993;-66
2024/01/02 12:34:31;;;;;;;;;;;9.00;99.90;;;;;;5095096;28;19924;-67
2024/01/02 12:37:02;;;;;;;;;;;9.00;99.90;;;;;;5095363;28;20155;-66
2024/01/02 12:39:33;;;;;;;;;;;9.00;99.90;;;;;;5095431;28;19932;-66
2024/01/02 12:42:03;;;;;;;;;;;9.00;99.90;;;;;;5087295;28;19924;-67
2024/01/02 12:44:30;;;;;;;;;;;9.00;99.90;;;;;;5095023;28;20386;-66
2024/01/02 12:46:59;;;;;;;;;;;8.90;99.90;;;;;;5094909;28;19954;-66
2024/01/02 12:49:27;;;;;;;;;;;8.90;99.90;;;;;;5094954;28;20018;-66
2024/01/02 12:51:57;;;;;;;;;;;8.90;99.90;;;;;;5094967;28;20027;-66
2024/01/02 12:54:24;;;;;;;;;;;8.90;99.90;;;;;;5094938;28;19928;-66
2024/01/02 12:56:52;;;;;;;;;;;8.90;99.90;;;;;;5094722;28;19928;-66
2024/01/02 12:59:20;;;;;;;;;;;8.90;99.90;;;;;;5094478;28;20049;-67
2024/01/02 13:01:47;;;;;;;;;;;8.80;99.90;;;;;;5094604;28;20019;-67
2024/01/02 13:04:14;;;;;;;;;;;8.90;99.90;;;;;;5094814;28;19931;-66
2024/01/02 13:06:41;;;;;;;;;;;8.80;99.90;;;;;;5094681;28;19928;-66
2024/01/02 13:09:10;;;;;;;;;;;8.80;99.90;;;;;;5094587;28;20167;-66
2024/01/02 13:11:36;;;;;;;;;;;8.70;99.90;;;;;;5094423;28;19931;-66
2024/01/02 13:14:03;;;;;;;;;;;8.70;99.90;;;;;;5098075;28;20335;-66
2024/01/02 13:16:31;;;;;;;;;;;8.70;99.90;;;;;;5098480;28;20492;-66
2024/01/02 13:18:57;;;;;;;;;;;8.70;99.90;;;;;;5093972;28;20305;-66
2024/01/02 13:21:24;;;;;;;;;;;8.60;99.90;;;;;;5094708;28;19977;-66
2024/01/02 13:23:52;;;;;;;;;;;8.60;99.90;;;;;;5094468;28;19928;-66
2024/01/02 13:26:19;;;;;;;;;;;8.60;99.90;;;;;;5094378;28;19997;-66
2024/01/02 13:28:48;;;;;;;;;;;8.60;99.90;;;;;;5091865;28;19924;-66
2024/01/02 13:31:26;;;;;;;;;;;8.50;99.90;;;;;;5094283;28;20031;-66
2024/01/02 13:33:54;;;;;;;;;;;8.50;99.90;;;;;;5093808;28;20278;-67
2024/01/02 13:36:20;;;;;;;;;;;8.50;99.90;;;;;;5094064;28;19931;-66
2024/01/02 13:38:48;;;;;;;;;;;8.50;99.90;;;;;;5093932;28;19924;-66
2024/01/02 13:41:14;;;;;;;;;;;8.40;99.90;;;;;;5093784;28;19935;-66
2024/01/02 13:43:41;;;;;;;;;;;8.40;99.90;;;;;;5093934;28;20019;-66
2024/01/02 13:46:11;;;;;;;;;;;8.40;99.90;;;;;;5094116;28;20005;-66
2024/01/02 13:48:38;;;;;;;;;;;8.40;99.90;;;;;;5093813;28;19930;-67
2024/01/02 13:51:07;;;;;;;;;;;8.40;99.90;;;;;;5093694;28;19928;-67
2024/01/02 13:53:53;;;;;;;;;;;8.40;99.90;;;;;;5093448;28;19927;-67
2024/01/02 13:56:19;;;;;;;;;;;8.40;99.90;;;;;;5088266;28;20317;-66
2024/01/02 13:58:55;;;;;;;;;;;8.40;99.90;;;;;;5093408;28;20352;-67
2024/01/02 14:01:28;;;;;;;;;;;8.30;99.90;;;;;;5094131;28;19924;-66
2024/01/02 14:03:55;;;;;;;;;;;8.30;99.90;;;;;;5093737;28;19934;-66
2024/01/02 14:06:23;;;;;;;;;;;8.30;99.90;;;;;;5093485;28;19981;-66
2024/01/02 14:09:08;;;;;;;;;;;8.30;99.90;;;;;;5093344;28;19969;-66
2024/01/02 14:11:34;;;;;;;;;;;8.30;99.90;;;;;;5093555;28;19924;-67
2024/01/02 14:14:06;;;;;;;;;;;8.30;99.90;;;;;;5090399;28;19994;-66
2024/01/02 14:16:32;;;;;;;;;;;8.30;99.90;;;;;;5089501;28;19924;-66
2024/01/02 14:18:59;;;;;;;;;;;8.20;99.90;;;;;;5092618;28;19939;-66
2024/01/02 14:21:28;;;;;;;;;;;8.20;99.90;;;;;;5093415;28;19924;-66
2024/01/02 14:23:58;;;;;;;;;;;8.20;99.90;;;;;;5092682;28;19932;-67
2024/01/02 14:26:28;;;;;;;;;;;8.20;99.90;;;;;;5093246;28;20282;-66
2024/01/02 14:28:58;;;;;;;;;;;8.20;99.90;;;;;;5090807;28;19974;-66
2024/01/02 14:31:32;;;;;;;;;;;8.20;99.90;;;;;;5093054;28;19934;-67
2024/01/02 14:34:10;;;;;;;;;;;8.20;99.90;;;;;;5092512;28;20382;-67